createdAt,value
2023-04-18T00:00:41.155Z,586.4
2023-04-18T00:01:43.109Z,586.6
2023-04-18T00:02:45.548Z,586.5
2023-04-18T00:03:48.905Z,586.5
2023-04-18T00:04:51.741Z,586.6
2023-04-18T00:05:53.782Z,586.6
2023-04-18T00:06:55.624Z,586.4
2023-04-18T00:07:57.480Z,586.4
2023-04-18T00:08:59.616Z,586.7
2023-04-18T00:10:01.409Z,586.4
2023-04-18T00:11:03.595Z,586.6
2023-04-18T00:12:05.599Z,586.7
2023-04-18T00:13:07.448Z,586.3
2023-04-18T00:14:09.397Z,586.6
2023-04-18T00:15:11.166Z,586.6
2023-04-18T00:16:13.130Z,586.7
2023-04-18T00:17:15.331Z,586.5
2023-04-18T00:18:17.436Z,586.5
2023-04-18T00:19:19.359Z,586.4
2023-04-18T00:20:21.224Z,586.4
2023-04-18T00:21:23.279Z,586.2
2023-04-18T00:22:25.114Z,586.3
2023-04-18T00:23:27.068Z,586.4
2023-04-18T00:24:28.926Z,586.4
2023-04-18T00:25:30.796Z,586.4
2023-04-18T00:26:32.756Z,586.3
2023-04-18T00:27:34.576Z,586.3
2023-04-18T00:28:36.727Z,586.4
2023-04-18T00:29:38.577Z,586.3
2023-04-18T00:30:40.569Z,586.5
2023-04-18T00:31:42.382Z,586.2
2023-04-18T00:32:44.553Z,586.6
2023-04-18T00:33:46.304Z,586.7
2023-04-18T00:34:48.247Z,586.6
2023-04-18T00:35:50.198Z,586.7
2023-04-18T00:36:52.043Z,586.8
2023-04-18T00:37:53.894Z,587.1
2023-04-18T00:38:55.748Z,587.2
2023-04-18T00:39:57.608Z,586.9
2023-04-18T00:40:59.447Z,587.1
2023-04-18T00:42:01.432Z,586.9
2023-04-18T00:43:03.358Z,587.2
2023-04-18T00:44:05.201Z,587.1
2023-04-18T00:45:06.975Z,587.3
2023-04-18T00:46:09.033Z,587
2023-04-18T00:47:10.955Z,587.2
2023-04-18T00:48:12.912Z,586.8
2023-04-18T00:49:14.684Z,587.3
2023-04-18T00:50:16.535Z,587.3
2023-04-18T00:51:18.349Z,587.2
2023-04-18T00:52:20.209Z,587.4
2023-04-18T00:53:22.153Z,587.3
2023-04-18T00:54:24.015Z,587.7
2023-04-18T00:55:26.071Z,587.3
2023-04-18T00:56:27.920Z,587.6
2023-04-18T00:57:29.778Z,587.7
2023-04-18T00:58:31.714Z,587.8
2023-04-18T00:59:33.666Z,587.6
2023-04-18T01:00:35.620Z,588
2023-04-18T01:01:37.588Z,587.9
2023-04-18T01:02:40.174Z,587.9
2023-04-18T01:03:43.338Z,587.9
2023-04-18T01:04:45.175Z,587.9
2023-04-18T01:05:47.025Z,587.7
2023-04-18T01:06:48.807Z,588
2023-04-18T01:07:50.720Z,588.1
2023-04-18T01:08:52.566Z,588.5
2023-04-18T01:09:54.526Z,588.4
2023-04-18T01:10:56.473Z,588.5
2023-04-18T01:11:58.330Z,588.3
2023-04-18T01:13:00.205Z,588.7
2023-04-18T01:14:02.132Z,588.5
2023-04-18T01:15:04.080Z,588.5
2023-04-18T01:16:06.148Z,588.2
2023-04-18T01:17:08.003Z,588.8
2023-04-18T01:18:09.828Z,588.4
2023-04-18T01:19:11.696Z,588.2
2023-04-18T01:20:13.530Z,588.6
2023-04-18T01:21:15.382Z,588.5
2023-04-18T01:22:17.230Z,588.4
2023-04-18T01:23:18.916Z,588.3
2023-04-18T01:24:20.724Z,588
2023-04-18T01:25:22.653Z,588.5
2023-04-18T01:26:24.734Z,588.2
2023-04-18T01:27:26.594Z,588.6
2023-04-18T01:28:28.576Z,588.1
2023-04-18T01:29:30.492Z,588.2
2023-04-18T01:30:32.550Z,588.2
2023-04-18T01:31:34.562Z,588.5
2023-04-18T01:32:36.813Z,588.5
2023-04-18T01:33:38.622Z,588.4
2023-04-18T01:34:40.478Z,588.9
2023-04-18T01:35:42.314Z,589.2
2023-04-18T01:36:44.171Z,589
2023-04-18T01:37:46.114Z,589
2023-04-18T01:38:47.895Z,588.9
2023-04-18T01:39:49.705Z,589
2023-04-18T01:40:51.569Z,589.5
2023-04-18T01:41:53.507Z,589
2023-04-18T01:42:55.361Z,589.2
2023-04-18T01:43:57.336Z,589.2
2023-04-18T01:44:59.261Z,589.4
2023-04-18T01:46:01.218Z,589.3
2023-04-18T01:47:03.609Z,589.2
2023-04-18T01:48:05.433Z,589.3
2023-04-18T01:49:07.277Z,589.4
2023-04-18T01:50:09.133Z,589.8
2023-04-18T01:51:10.876Z,589.9
2023-04-18T01:52:12.723Z,589.8
2023-04-18T01:53:14.675Z,590.1
2023-04-18T01:54:17.356Z,589.7
2023-04-18T01:55:19.207Z,589.7
2023-04-18T01:56:21.053Z,589.6
2023-04-18T01:57:22.909Z,589.8
2023-04-18T01:58:24.656Z,589.7
2023-04-18T01:59:26.619Z,590.1
2023-04-18T02:00:28.665Z,589.7
2023-04-18T02:01:30.612Z,589.6
2023-04-18T02:02:33.115Z,589.6
2023-04-18T02:03:36.264Z,589.6
2023-04-18T02:04:38.312Z,589.6
2023-04-18T02:05:40.165Z,589.1
2023-04-18T02:06:42.013Z,589.3
2023-04-18T02:07:43.753Z,589.3
2023-04-18T02:08:45.718Z,588.8
2023-04-18T02:09:47.569Z,589.1
2023-04-18T02:10:49.519Z,589.2
2023-04-18T02:11:51.374Z,589.2
2023-04-18T02:12:53.209Z,588.9
2023-04-18T02:13:55.065Z,589
2023-04-18T02:14:57.086Z,588.7
2023-04-18T02:15:59.181Z,588.9
2023-04-18T02:17:01.016Z,588.5
2023-04-18T02:18:03.211Z,588.9
2023-04-18T02:19:05.130Z,588.6
2023-04-18T02:20:07.087Z,588.7
2023-04-18T02:21:08.934Z,588.5
2023-04-18T02:22:10.786Z,588.5
2023-04-18T02:23:12.678Z,588.2
2023-04-18T02:24:15.830Z,587.9
2023-04-18T02:25:17.777Z,588.3
2023-04-18T02:26:19.618Z,588
2023-04-18T02:27:21.464Z,588.1
2023-04-18T02:28:23.319Z,588.2
2023-04-18T02:29:25.171Z,588
2023-04-18T02:30:27.054Z,588.2
2023-04-18T02:31:29.103Z,588.3
2023-04-18T02:32:31.349Z,588
2023-04-18T02:33:33.184Z,588
2023-04-18T02:34:35.131Z,588
2023-04-18T02:35:36.985Z,588.3
2023-04-18T02:36:38.846Z,588
2023-04-18T02:37:40.690Z,588.3
2023-04-18T02:38:42.639Z,588.2
2023-04-18T02:39:44.483Z,588.3
2023-04-18T02:40:46.428Z,588.3
2023-04-18T02:41:48.298Z,588.3
2023-04-18T02:42:50.254Z,588.4
2023-04-18T02:43:52.088Z,588.3
2023-04-18T02:44:53.852Z,588
2023-04-18T02:45:55.960Z,588.2
2023-04-18T02:46:57.850Z,588.1
2023-04-18T02:47:59.914Z,588.1
2023-04-18T02:49:01.682Z,587.9
2023-04-18T02:50:03.513Z,588.1
2023-04-18T02:51:05.282Z,588.1
2023-04-18T02:52:07.103Z,588.2
2023-04-18T02:53:09.044Z,587.8
2023-04-18T02:54:10.969Z,588.1
2023-04-18T02:55:12.855Z,588.3
2023-04-18T02:56:14.799Z,588.2
2023-04-18T02:57:16.651Z,588
2023-04-18T02:58:18.507Z,587.8
2023-04-18T02:59:20.360Z,587.8
2023-04-18T03:00:22.202Z,588
2023-04-18T03:01:24.325Z,587.8
2023-04-18T03:02:27.070Z,587.7
2023-04-18T03:03:29.307Z,587.8
2023-04-18T03:04:31.181Z,587.8
2023-04-18T03:05:33.096Z,587.9
2023-04-18T03:06:34.967Z,587.7
2023-04-18T03:07:36.902Z,587.8
2023-04-18T03:08:38.852Z,587.5
2023-04-18T03:09:40.803Z,587.5
2023-04-18T03:10:42.456Z,587.3
2023-04-18T03:11:44.300Z,587.5
2023-04-18T03:12:46.138Z,587.4
2023-04-18T03:13:48.094Z,587.2
2023-04-18T03:14:49.949Z,587
2023-04-18T03:15:51.919Z,587.1
2023-04-18T03:16:56.228Z,587.1
2023-04-18T03:17:58.302Z,586.8
2023-04-18T03:19:00.220Z,586.6
2023-04-18T03:20:02.158Z,586.7
2023-04-18T03:21:04.020Z,586.6
2023-04-18T03:22:05.870Z,586.3
2023-04-18T03:23:07.726Z,586
2023-04-18T03:24:13.105Z,585.8
2023-04-18T03:25:15.118Z,585.7
2023-04-18T03:26:16.949Z,585.5
2023-04-18T03:27:18.920Z,585.6
2023-04-18T03:28:20.854Z,585.7
2023-04-18T03:29:22.702Z,585.3
2023-04-18T03:30:24.567Z,585.6
2023-04-18T03:31:26.634Z,585.6
2023-04-18T03:32:28.624Z,585.3
2023-04-18T03:33:30.728Z,585.4
2023-04-18T03:34:32.577Z,585.2
2023-04-18T03:35:34.325Z,585.3
2023-04-18T03:36:36.166Z,585.3
2023-04-18T03:37:37.884Z,585.1
2023-04-18T03:38:39.683Z,585.6
2023-04-18T03:39:41.516Z,584.8
2023-04-18T03:40:43.265Z,585.3
2023-04-18T03:41:45.211Z,585.5
2023-04-18T03:42:47.166Z,585.3
2023-04-18T03:43:49.014Z,585.5
2023-04-18T03:44:50.977Z,585.2
2023-04-18T03:45:53.154Z,585.5
2023-04-18T03:46:55.085Z,585.4
2023-04-18T03:47:57.272Z,585.5
2023-04-18T03:48:59.083Z,585.4
2023-04-18T03:50:01.034Z,585.2
2023-04-18T03:51:02.893Z,585.2
2023-04-18T03:52:04.675Z,585.2
2023-04-18T03:53:06.480Z,585.4
2023-04-18T03:54:08.333Z,585.2
2023-04-18T03:55:10.300Z,585.2
2023-04-18T03:56:12.059Z,585.2
2023-04-18T03:57:13.897Z,585.2
2023-04-18T03:58:15.739Z,585.2
2023-04-18T03:59:17.595Z,585.3
2023-04-18T04:00:19.437Z,585.3
2023-04-18T04:01:21.298Z,585.3
2023-04-18T04:02:23.679Z,585.1
2023-04-18T04:03:26.376Z,585.4
2023-04-18T04:04:28.720Z,585.2
2023-04-18T04:05:30.647Z,585.1
2023-04-18T04:06:32.485Z,585.1
2023-04-18T04:07:34.235Z,585.4
2023-04-18T04:08:35.980Z,584.8
2023-04-18T04:09:37.842Z,585.1
2023-04-18T04:10:39.703Z,585.1
2023-04-18T04:11:41.550Z,585
2023-04-18T04:12:43.384Z,584.8
2023-04-18T04:13:45.240Z,584.9
2023-04-18T04:14:47.188Z,584.9
2023-04-18T04:15:49.043Z,584.8
2023-04-18T04:16:51.156Z,584.8
2023-04-18T04:17:53.254Z,584.9
2023-04-18T04:18:55.129Z,584.8
2023-04-18T04:19:56.957Z,584.6
2023-04-18T04:20:58.802Z,584.7
2023-04-18T04:22:00.755Z,584.4
2023-04-18T04:23:02.603Z,584.4
2023-04-18T04:24:04.393Z,584.5
2023-04-18T04:25:06.205Z,584.2
2023-04-18T04:26:08.060Z,584.2
2023-04-18T04:27:09.866Z,584
2023-04-18T04:28:11.702Z,583.8
2023-04-18T04:29:13.632Z,583.7
2023-04-18T04:30:15.553Z,583.9
2023-04-18T04:31:17.743Z,583.8
2023-04-18T04:32:19.668Z,583.7
2023-04-18T04:33:21.449Z,583.9
2023-04-18T04:34:23.271Z,583.9
2023-04-18T04:35:25.205Z,583.8
2023-04-18T04:36:27.228Z,583.7
2023-04-18T04:37:29.637Z,583.6
2023-04-18T04:38:32.001Z,583.8
2023-04-18T04:39:33.836Z,583.6
2023-04-18T04:40:35.686Z,583.6
2023-04-18T04:41:37.663Z,583.8
2023-04-18T04:42:39.506Z,583.4
2023-04-18T04:43:41.459Z,583.4
2023-04-18T04:44:43.872Z,583.2
2023-04-18T04:45:46.172Z,583.4
2023-04-18T04:46:48.133Z,583.1
2023-04-18T04:47:49.926Z,583.2
2023-04-18T04:48:51.828Z,583
2023-04-18T04:49:53.811Z,582.8
2023-04-18T04:50:55.513Z,582.6
2023-04-18T04:51:57.821Z,582.8
2023-04-18T04:53:00.455Z,582.9
2023-04-18T04:54:02.395Z,582.5
2023-04-18T04:55:04.156Z,582.3
2023-04-18T04:56:06.008Z,582.8
2023-04-18T04:57:07.947Z,582.2
2023-04-18T04:58:09.808Z,582.1
2023-04-18T04:59:11.763Z,582.2
2023-04-18T05:00:13.498Z,582.7
2023-04-18T05:01:15.610Z,582
2023-04-18T05:02:18.079Z,582.4
2023-04-18T05:03:20.650Z,581.8
2023-04-18T05:04:23.253Z,581.9
2023-04-18T05:05:25.256Z,581.6
2023-04-18T05:06:27.272Z,582
2023-04-18T05:07:29.125Z,581.6
2023-04-18T05:08:31.007Z,581.7
2023-04-18T05:09:32.754Z,581.6
2023-04-18T05:10:34.566Z,581.3
2023-04-18T05:11:36.416Z,581.6
2023-04-18T05:12:38.365Z,581.6
2023-04-18T05:13:40.209Z,581.8
2023-04-18T05:14:41.991Z,581.8
2023-04-18T05:15:46.682Z,581.9
2023-04-18T05:16:48.759Z,581.3
2023-04-18T05:17:50.992Z,581.4
2023-04-18T05:18:52.857Z,581.2
2023-04-18T05:19:54.802Z,581.3
2023-04-18T05:20:56.901Z,581.1
2023-04-18T05:21:58.812Z,581.2
2023-04-18T05:23:00.663Z,581.1
2023-04-18T05:24:02.610Z,581.2
2023-04-18T05:25:04.455Z,581.4
2023-04-18T05:26:06.142Z,581.5
2023-04-18T05:27:07.981Z,581.2
2023-04-18T05:28:09.808Z,581.4
2023-04-18T05:29:11.773Z,581.3
2023-04-18T05:30:13.624Z,581.2
2023-04-18T05:31:15.679Z,581
2023-04-18T05:32:17.430Z,580.9
2023-04-18T05:33:19.264Z,581.1
2023-04-18T05:34:21.224Z,581.1
2023-04-18T05:35:23.019Z,581.3
2023-04-18T05:36:24.929Z,581.2
2023-04-18T05:37:26.867Z,581.1
2023-04-18T05:38:28.825Z,581.1
2023-04-18T05:39:30.777Z,581.2
2023-04-18T05:40:32.695Z,581.3
2023-04-18T05:41:34.571Z,581.2
2023-04-18T05:42:36.427Z,581
2023-04-18T05:43:38.279Z,581
2023-04-18T05:44:40.132Z,581
2023-04-18T05:45:42.174Z,581
2023-04-18T05:46:44.576Z,581.1
2023-04-18T05:47:46.732Z,580.7
2023-04-18T05:48:48.666Z,580.8
2023-04-18T05:49:50.379Z,580.5
2023-04-18T05:50:52.261Z,580.9
2023-04-18T05:51:54.130Z,580.7
2023-04-18T05:52:56.050Z,580.8
2023-04-18T05:53:57.866Z,580.6
2023-04-18T05:54:59.696Z,580.5
2023-04-18T05:56:01.506Z,580.2
2023-04-18T05:57:05.407Z,580.5
2023-04-18T05:58:07.260Z,580
2023-04-18T05:59:09.104Z,580.3
2023-04-18T06:00:10.960Z,579.9
2023-04-18T06:01:12.794Z,579.6
2023-04-18T06:02:15.124Z,579.8
2023-04-18T06:03:18.046Z,580
2023-04-18T06:04:22.057Z,579.9
2023-04-18T06:05:25.453Z,580
2023-04-18T06:06:27.488Z,580.1
2023-04-18T06:07:29.475Z,580
2023-04-18T06:08:31.431Z,579.9
2023-04-18T06:09:33.530Z,580.1
2023-04-18T06:10:39.591Z,580.1
2023-04-18T06:11:41.450Z,579.8
2023-04-18T06:12:43.401Z,579.9
2023-04-18T06:13:45.240Z,579.8
2023-04-18T06:14:47.001Z,580.2
2023-04-18T06:15:48.969Z,580
2023-04-18T06:16:50.789Z,580.2
2023-04-18T06:17:52.961Z,580.1
2023-04-18T06:18:54.822Z,579.9
2023-04-18T06:19:56.555Z,580
2023-04-18T06:20:58.393Z,579.9
2023-04-18T06:22:00.296Z,580.1
2023-04-18T06:23:02.220Z,579.9
2023-04-18T06:24:04.066Z,580
2023-04-18T06:25:06.206Z,580
2023-04-18T06:26:08.162Z,580
2023-04-18T06:27:32.265Z,579.9
2023-04-18T06:28:34.124Z,579.7
2023-04-18T06:29:38.528Z,579.6
2023-04-18T06:30:40.352Z,579.8
2023-04-18T06:31:42.639Z,579.6
2023-04-18T06:32:44.892Z,579.8
2023-04-18T06:33:46.711Z,579.6
2023-04-18T06:34:48.571Z,579.7
2023-04-18T06:35:50.425Z,579.4
2023-04-18T06:36:52.287Z,579.8
2023-04-18T06:37:54.108Z,579.7
2023-04-18T06:38:55.975Z,579.9
2023-04-18T06:39:57.918Z,579.9
2023-04-18T06:40:59.876Z,579.8
2023-04-18T06:42:01.726Z,579.7
2023-04-18T06:43:03.659Z,579.6
2023-04-18T06:44:05.619Z,579.5
2023-04-18T06:45:07.371Z,579.6
2023-04-18T06:46:09.558Z,579.6
2023-04-18T06:47:11.367Z,579.5
2023-04-18T06:48:13.224Z,579.5
2023-04-18T06:49:15.184Z,579.5
2023-04-18T06:50:17.138Z,579.5
2023-04-18T06:51:19.184Z,579.7
2023-04-18T06:52:20.928Z,579.7
2023-04-18T06:53:22.888Z,579.9
2023-04-18T06:54:24.760Z,579.7
2023-04-18T06:55:26.693Z,579.8
2023-04-18T06:56:28.949Z,579.9
2023-04-18T06:57:30.792Z,579.9
2023-04-18T06:58:32.850Z,579.7
2023-04-18T06:59:34.696Z,579.4
2023-04-18T07:00:36.500Z,579.7
2023-04-18T07:01:38.565Z,579.9
2023-04-18T07:02:41.049Z,579.6
2023-04-18T07:03:43.517Z,579.4
2023-04-18T07:04:45.826Z,579
2023-04-18T07:05:47.549Z,579.2
2023-04-18T07:06:49.384Z,579.2
2023-04-18T07:07:51.246Z,579
2023-04-18T07:08:55.046Z,579.2
2023-04-18T07:09:56.906Z,578.9
2023-04-18T07:10:58.948Z,579
2023-04-18T07:12:00.798Z,579.1
2023-04-18T07:13:02.638Z,578.9
2023-04-18T07:14:04.588Z,579.1
2023-04-18T07:15:06.474Z,579
2023-04-18T07:16:08.304Z,579.2
2023-04-18T07:17:10.720Z,579
2023-04-18T07:18:38.213Z,579.4
2023-04-18T07:19:40.369Z,579.2
2023-04-18T07:20:42.314Z,579.5
2023-04-18T07:21:44.596Z,579.5
2023-04-18T07:22:46.336Z,579.2
2023-04-18T07:23:48.093Z,579.5
2023-04-18T07:24:49.921Z,579.3
2023-04-18T07:25:51.812Z,579.1
2023-04-18T07:26:55.783Z,578.9
2023-04-18T07:27:57.620Z,578.7
2023-04-18T07:28:59.407Z,578.5
2023-04-18T07:30:01.263Z,578.6
2023-04-18T07:31:03.391Z,578.9
2023-04-18T07:32:09.126Z,578.9
2023-04-18T07:33:11.078Z,579.1
2023-04-18T07:34:13.858Z,579
2023-04-18T07:35:15.732Z,579.2
2023-04-18T07:36:17.462Z,579.2
2023-04-18T07:37:19.185Z,579.3
2023-04-18T07:38:21.134Z,579.3
2023-04-18T07:39:23.103Z,579.4
2023-04-18T07:40:24.957Z,579.1
2023-04-18T07:41:27.031Z,578.9
2023-04-18T07:42:28.870Z,579.3
2023-04-18T07:43:30.904Z,579.3
2023-04-18T07:44:32.763Z,579.1
2023-04-18T07:45:34.600Z,578.9
2023-04-18T07:46:36.610Z,579
2023-04-18T07:47:38.642Z,578.6
2023-04-18T07:48:40.470Z,578.6
2023-04-18T07:49:42.421Z,578.4
2023-04-18T07:50:44.276Z,578.4
2023-04-18T07:51:45.949Z,578.7
2023-04-18T07:52:47.874Z,578.2
2023-04-18T07:53:49.721Z,578
2023-04-18T07:54:51.666Z,578
2023-04-18T07:55:53.510Z,578.1
2023-04-18T07:56:55.494Z,578.1
2023-04-18T07:57:57.428Z,578
2023-04-18T07:58:59.377Z,578.2
2023-04-18T08:00:01.323Z,577.9
2023-04-18T08:01:03.146Z,578.1
2023-04-18T08:02:05.028Z,577.8
2023-04-18T08:03:07.829Z,578
2023-04-18T08:04:10.663Z,577.9
2023-04-18T08:05:12.763Z,578
2023-04-18T08:06:14.776Z,578
2023-04-18T08:07:16.627Z,577.6
2023-04-18T08:08:18.445Z,577.5
2023-04-18T08:09:20.327Z,577.3
2023-04-18T08:10:24.601Z,578
2023-04-18T08:11:26.590Z,577.6
2023-04-18T08:12:28.887Z,577.5
2023-04-18T08:13:30.806Z,577.1
2023-04-18T08:14:32.516Z,577.6
2023-04-18T08:15:34.482Z,577.5
2023-04-18T08:16:36.695Z,577.5
2023-04-18T08:17:38.757Z,577.5
2023-04-18T08:18:40.609Z,577.8
2023-04-18T08:19:42.344Z,577.5
2023-04-18T08:20:44.229Z,577.6
2023-04-18T08:21:46.224Z,578
2023-04-18T08:23:13.448Z,578.1
2023-04-18T08:24:15.516Z,577.2
2023-04-18T08:25:17.365Z,577.4
2023-04-18T08:26:19.326Z,577.3
2023-04-18T08:27:21.170Z,577
2023-04-18T08:28:23.186Z,577.4
2023-04-18T08:29:25.389Z,577.2
2023-04-18T08:30:27.349Z,577.3
2023-04-18T08:31:29.537Z,577.3
2023-04-18T08:32:31.780Z,577
2023-04-18T08:33:33.506Z,577.4
2023-04-18T08:34:35.359Z,576.8
2023-04-18T08:35:37.210Z,577
2023-04-18T08:36:38.926Z,577
2023-04-18T08:37:40.772Z,577.1
2023-04-18T08:38:42.755Z,576.8
2023-04-18T08:39:44.502Z,577.2
2023-04-18T08:40:46.474Z,577.3
2023-04-18T08:41:48.197Z,577.2
2023-04-18T08:42:50.094Z,577.5
2023-04-18T08:43:52.229Z,577.8
2023-04-18T08:44:54.078Z,577.5
2023-04-18T08:45:56.227Z,577.7
2023-04-18T08:46:58.059Z,577.7
2023-04-18T08:48:00.155Z,578.1
2023-04-18T08:49:02.213Z,578.1
2023-04-18T08:50:04.139Z,578.3
2023-04-18T08:51:05.976Z,578.2
2023-04-18T08:52:07.732Z,577.9
2023-04-18T08:53:09.575Z,578.3
2023-04-18T08:54:11.418Z,578
2023-04-18T08:55:13.668Z,578
2023-04-18T08:56:15.640Z,578
2023-04-18T08:57:17.477Z,578.2
2023-04-18T08:58:19.325Z,578.3
2023-04-18T08:59:21.950Z,578.5
2023-04-18T09:00:23.783Z,578.2
2023-04-18T09:01:26.024Z,578
2023-04-18T09:02:28.104Z,578.6
2023-04-18T09:03:30.267Z,578.3
2023-04-18T09:04:32.424Z,578.3
2023-04-18T09:05:34.206Z,578.4
2023-04-18T09:06:36.008Z,578.3
2023-04-18T09:07:37.823Z,578.3
2023-04-18T09:08:39.570Z,578.3
2023-04-18T09:09:41.363Z,578.4
2023-04-18T09:10:47.176Z,578.4
2023-04-18T09:11:48.991Z,578.4
2023-04-18T09:12:51.329Z,578.4
2023-04-18T09:13:53.228Z,578.6
2023-04-18T09:14:55.215Z,578.7
2023-04-18T09:15:57.331Z,578.4
2023-04-18T09:16:59.687Z,578.3
2023-04-18T09:18:01.884Z,578.2
2023-04-18T09:19:07.296Z,578.2
2023-04-18T09:20:09.143Z,578.2
2023-04-18T09:21:11.087Z,578.2
2023-04-18T09:22:12.950Z,578
2023-04-18T09:23:15.150Z,578.2
2023-04-18T09:24:17.102Z,578.1
2023-04-18T09:25:18.907Z,577.9
2023-04-18T09:26:21.694Z,578.2
2023-04-18T09:27:23.451Z,577.9
2023-04-18T09:28:25.268Z,578
2023-04-18T09:29:27.222Z,577.9
2023-04-18T09:30:29.414Z,578
2023-04-18T09:31:31.901Z,577.9
2023-04-18T09:32:33.922Z,578
2023-04-18T09:33:35.775Z,577.6
2023-04-18T09:34:37.503Z,577.5
2023-04-18T09:35:39.352Z,577.7
2023-04-18T09:36:41.206Z,577.9
2023-04-18T09:37:43.071Z,578
2023-04-18T09:38:44.903Z,578.1
2023-04-18T09:39:46.885Z,577.9
2023-04-18T09:40:48.806Z,578.2
2023-04-18T09:41:50.675Z,578.3
2023-04-18T09:42:52.501Z,578.3
2023-04-18T09:43:54.353Z,578.8
2023-04-18T09:44:57.428Z,578.6
2023-04-18T09:45:59.895Z,578.6
2023-04-18T09:47:01.859Z,578.6
2023-04-18T09:48:04.183Z,578.6
2023-04-18T09:49:05.969Z,578.5
2023-04-18T09:50:07.726Z,578.3
2023-04-18T09:51:09.556Z,578.8
2023-04-18T09:52:11.454Z,578.6
2023-04-18T09:53:13.273Z,578.7
2023-04-18T09:54:16.114Z,578.6
2023-04-18T09:55:18.087Z,578.6
2023-04-18T09:56:19.954Z,578.7
2023-04-18T09:57:21.795Z,578.6
2023-04-18T09:58:23.642Z,578.7
2023-04-18T09:59:25.487Z,579
2023-04-18T10:00:27.392Z,578.8
2023-04-18T10:01:30.091Z,578.8
2023-04-18T10:02:32.437Z,578.7
2023-04-18T10:03:34.586Z,578.7
2023-04-18T10:04:36.811Z,578.8
2023-04-18T10:05:38.867Z,578.7
2023-04-18T10:06:40.790Z,578.9
2023-04-18T10:07:42.678Z,579
2023-04-18T10:08:44.588Z,578.9
2023-04-18T10:09:46.325Z,578.9
2023-04-18T10:10:48.200Z,578.6
2023-04-18T10:11:50.036Z,578.7
2023-04-18T10:12:52.303Z,579
2023-04-18T10:13:54.148Z,578.8
2023-04-18T10:14:55.904Z,579.1
2023-04-18T10:15:58.106Z,579.1
2023-04-18T10:17:00.178Z,579.1
2023-04-18T10:18:07.130Z,579.4
2023-04-18T10:19:09.027Z,579.4
2023-04-18T10:20:10.892Z,579.6
2023-04-18T10:21:12.739Z,579.8
2023-04-18T10:22:14.589Z,579.7
2023-04-18T10:23:16.355Z,579.7
2023-04-18T10:24:18.175Z,580
2023-04-18T10:25:20.025Z,579.8
2023-04-18T10:26:21.764Z,580.1
2023-04-18T10:27:23.631Z,579.9
2023-04-18T10:28:25.409Z,580
2023-04-18T10:29:27.220Z,580.3
2023-04-18T10:30:29.077Z,580.5
2023-04-18T10:31:31.397Z,580.3
2023-04-18T10:32:33.590Z,580.8
2023-04-18T10:33:42.902Z,580.6
2023-04-18T10:34:44.978Z,580.6
2023-04-18T10:35:46.662Z,580.1
2023-04-18T10:36:48.492Z,580.6
2023-04-18T10:37:50.316Z,580.7
2023-04-18T10:38:52.180Z,581
2023-04-18T10:39:54.124Z,580.8
2023-04-18T10:40:56.070Z,580.9
2023-04-18T10:41:57.934Z,580.8
2023-04-18T10:42:59.886Z,580.8
2023-04-18T10:44:01.745Z,581
2023-04-18T10:45:03.584Z,581.3
2023-04-18T10:46:05.432Z,581.5
2023-04-18T10:47:07.597Z,581.5
2023-04-18T10:48:09.796Z,581.3
2023-04-18T10:49:13.080Z,581.2
2023-04-18T10:50:15.399Z,581.5
2023-04-18T10:51:17.347Z,581.3
2023-04-18T10:52:19.067Z,581.4
2023-04-18T10:53:20.870Z,581.4
2023-04-18T10:54:22.688Z,581.5
2023-04-18T10:55:24.646Z,581.5
2023-04-18T10:56:26.859Z,581.1
2023-04-18T10:57:28.664Z,581.5
2023-04-18T10:58:30.442Z,581.5
2023-04-18T10:59:32.247Z,581.6
2023-04-18T11:00:34.235Z,582.2
2023-04-18T11:01:36.412Z,582.3
2023-04-18T11:02:38.700Z,582.4
2023-04-18T11:03:41.204Z,582.5
2023-04-18T11:04:43.281Z,582.5
2023-04-18T11:05:46.731Z,582.4
2023-04-18T11:06:48.878Z,582.5
2023-04-18T11:07:50.735Z,582.6
2023-04-18T11:08:52.485Z,582.9
2023-04-18T11:09:54.333Z,582.9
2023-04-18T11:10:56.508Z,583
2023-04-18T11:11:58.469Z,583.1
2023-04-18T11:13:00.287Z,582.9
2023-04-18T11:14:02.150Z,582.8
2023-04-18T11:15:03.888Z,583
2023-04-18T11:16:05.990Z,582.9
2023-04-18T11:17:07.995Z,583.1
2023-04-18T11:18:10.129Z,582.6
2023-04-18T11:19:12.232Z,583.5
2023-04-18T11:20:14.183Z,583
2023-04-18T11:21:16.127Z,583.5
2023-04-18T11:22:18.104Z,583.2
2023-04-18T11:23:20.029Z,583.3
2023-04-18T11:24:21.968Z,583.6
2023-04-18T11:25:23.850Z,583.3
2023-04-18T11:26:25.695Z,583.5
2023-04-18T11:27:27.629Z,583.5
2023-04-18T11:28:29.584Z,583.1
2023-04-18T11:29:31.421Z,583.4
2023-04-18T11:30:33.394Z,582.9
2023-04-18T11:31:35.552Z,583.1
2023-04-18T11:32:37.711Z,583.4
2023-04-18T11:33:39.657Z,583
2023-04-18T11:34:41.455Z,583.3
2023-04-18T11:35:43.336Z,583.5
2023-04-18T11:36:45.827Z,583.5
2023-04-18T11:37:47.867Z,583.5
2023-04-18T11:38:49.722Z,583.7
2023-04-18T11:39:51.704Z,584.2
2023-04-18T11:40:53.948Z,584.3
2023-04-18T11:41:55.892Z,584.7
2023-04-18T11:42:57.746Z,584.2
2023-04-18T11:43:59.482Z,584
2023-04-18T11:45:01.335Z,584
2023-04-18T11:46:03.353Z,583.7
2023-04-18T11:47:05.011Z,583.4
2023-04-18T11:48:07.137Z,583.5
2023-04-18T11:49:09.030Z,583.6
2023-04-18T11:50:10.819Z,583.4
2023-04-18T11:51:12.840Z,583.5
2023-04-18T11:52:14.788Z,583.2
2023-04-18T11:53:16.640Z,583.1
2023-04-18T11:54:18.484Z,583.1
2023-04-18T11:55:20.280Z,583.6
2023-04-18T11:56:22.025Z,583.7
2023-04-18T11:57:23.833Z,583.4
2023-04-18T11:58:25.648Z,583.1
2023-04-18T11:59:27.579Z,583.4
2023-04-18T12:00:29.459Z,583.2
2023-04-18T12:01:31.433Z,583.1
2023-04-18T12:02:33.791Z,582.9
2023-04-18T12:03:36.682Z,583.1
2023-04-18T12:04:40.802Z,583.2
2023-04-18T12:05:43.529Z,583
2023-04-18T12:06:45.616Z,583.3
2023-04-18T12:07:47.561Z,583.4
2023-04-18T12:08:49.302Z,583.4
2023-04-18T12:09:51.252Z,582.8
2023-04-18T12:10:53.109Z,583
2023-04-18T12:11:54.965Z,583.3
2023-04-18T12:12:56.701Z,583.2
2023-04-18T12:13:58.566Z,583.3
2023-04-18T12:15:00.622Z,583.5
2023-04-18T12:16:02.820Z,583.2
2023-04-18T12:17:04.726Z,583
2023-04-18T12:18:06.820Z,583.4
2023-04-18T12:19:08.564Z,583.7
2023-04-18T12:20:10.463Z,583.5
2023-04-18T12:21:12.493Z,583.2
2023-04-18T12:22:14.393Z,583.3
2023-04-18T12:23:16.223Z,583.1
2023-04-18T12:24:18.096Z,582.9
2023-04-18T12:25:20.134Z,583.2
2023-04-18T12:26:21.989Z,583
2023-04-18T12:27:23.831Z,583.3
2023-04-18T12:28:25.720Z,583.7
2023-04-18T12:29:27.480Z,582.8
2023-04-18T12:30:29.803Z,583.5
2023-04-18T12:31:31.778Z,583.3
2023-04-18T12:32:33.697Z,583.2
2023-04-18T12:33:35.662Z,582.5
2023-04-18T12:34:37.503Z,582.5
2023-04-18T12:35:39.436Z,582.8
2023-04-18T12:36:41.442Z,582.5
2023-04-18T12:37:43.310Z,582.9
2023-04-18T12:38:45.203Z,582.7
2023-04-18T12:39:46.889Z,583
2023-04-18T12:40:48.816Z,582.9
2023-04-18T12:41:50.869Z,582.7
2023-04-18T12:42:52.714Z,582.6
2023-04-18T12:43:54.564Z,582.4
2023-04-18T12:44:56.420Z,582
2023-04-18T12:45:58.282Z,582.1
2023-04-18T12:47:00.243Z,582.2
2023-04-18T12:48:02.402Z,582.1
2023-04-18T12:49:04.317Z,582.3
2023-04-18T12:50:06.279Z,582
2023-04-18T12:51:08.229Z,581.9
2023-04-18T12:52:10.391Z,581.7
2023-04-18T12:53:12.294Z,582
2023-04-18T12:54:15.284Z,582
2023-04-18T12:55:17.063Z,581.7
2023-04-18T12:56:18.926Z,582.1
2023-04-18T12:57:20.727Z,581.4
2023-04-18T12:58:22.610Z,581.8
2023-04-18T12:59:24.338Z,581.8
2023-04-18T13:00:26.322Z,581.6
2023-04-18T13:01:28.623Z,581.9
2023-04-18T13:02:31.117Z,581.7
2023-04-18T13:03:33.735Z,581.6
2023-04-18T13:04:36.929Z,581.4
2023-04-18T13:05:38.937Z,581.6
2023-04-18T13:06:40.807Z,581.3
2023-04-18T13:07:42.669Z,581.6
2023-04-18T13:08:44.505Z,581.7
2023-04-18T13:09:46.372Z,581.7
2023-04-18T13:10:48.708Z,581.8
2023-04-18T13:11:50.555Z,581.6
2023-04-18T13:12:52.399Z,581.2
2023-04-18T13:13:54.260Z,581.2
2023-04-18T13:14:55.989Z,581.2
2023-04-18T13:15:57.658Z,580.9
2023-04-18T13:16:59.860Z,580.9
2023-04-18T13:18:01.979Z,581.1
2023-04-18T13:19:03.830Z,581.3
2023-04-18T13:20:05.571Z,581.7
2023-04-18T13:21:07.405Z,581.6
2023-04-18T13:22:09.562Z,581.7
2023-04-18T13:23:11.458Z,581.9
2023-04-18T13:24:13.156Z,582
2023-04-18T13:25:15.145Z,581.5
2023-04-18T13:26:16.973Z,581.6